Terminal Aerodrome Forecast
Issued by NWS

Home | Current Version | Previous Version | Text Only | Print | Product List | Glossary On
Versions: 1 2 3 4 5 6 7 8 9 10 11 12 13 14 15 16 17 18
000
FTUS44 KMAF 282000 AAA
TAFINK
TAF AMD
KINK 282038Z 2821/2918 24012G18KT P6SM SKC
     FM290000 24006KT P6SM SCT250
     FM291000 32004KT P6SM BKN200=

USA.gov is the U.S. government's official web portal to all federal, state and local government web resources and services.